Time;durP1;ratioP1;P1;durP2;ratioP2;P2;SDS_P1;SDS_P2;PMS_P1;PMS_P2;Temp;Humidity;BMP_temperature;BMP_pressure;BME280_temperature;BME280_humidity;BME280_pressure;Samples;Min_cycle;Max_cycle;Signal;HPM_P1;HPM_P2
2024/02/26 00:01:06;;;;;;;7.47;7.07;;;7.80;99.90;;;;;;4882290;29;20201;-78
2024/02/26 00:03:35;;;;;;;7.70;7.30;;;7.80;99.90;;;;;;4881316;29;20225;-78
2024/02/26 00:06:03;;;;;;;7.67;7.27;;;7.80;99.90;;;;;;4882055;29;20279;-78
2024/02/26 00:08:30;;;;;;;7.63;7.20;;;7.80;99.90;;;;;;4882717;29;20205;-79
2024/02/26 00:10:56;;;;;;;7.60;7.20;;;7.80;99.90;;;;;;4881825;29;20220;-78
2024/02/26 00:13:23;;;;;;;7.50;7.10;;;7.80;99.90;;;;;;4880778;29;20281;-78
2024/02/26 00:15:50;;;;;;;7.70;7.20;;;7.80;99.90;;;;;;4881881;29;20250;-78
2024/02/26 00:18:17;;;;;;;7.87;7.40;;;7.80;99.90;;;;;;4880751;29;20679;-78
2024/02/26 00:20:45;;;;;;;7.60;7.20;;;7.70;99.90;;;;;;4880636;29;20708;-78
2024/02/26 00:23:11;;;;;;;7.70;7.20;;;7.70;99.90;;;;;;4881922;29;20221;-78
2024/02/26 00:25:38;;;;;;;7.70;7.30;;;7.70;99.90;;;;;;4881869;29;20642;-78
2024/02/26 00:28:06;;;;;;;7.70;7.30;;;7.70;99.90;;;;;;4880756;29;20257;-78
2024/02/26 00:30:32;;;;;;;7.73;7.30;;;7.80;99.90;;;;;;4881818;29;20205;-79
2024/02/26 00:32:59;;;;;;;8.27;7.77;;;7.80;99.90;;;;;;4881572;29;20229;-78
2024/02/26 00:35:26;;;;;;;8.17;7.57;;;7.70;99.90;;;;;;4880308;29;20236;-78
2024/02/26 00:37:54;;;;;;;7.80;7.30;;;7.80;99.90;;;;;;4880595;29;20293;-78
2024/02/26 00:40:21;;;;;;;7.90;7.40;;;7.70;99.90;;;;;;4880178;29;20221;-78
2024/02/26 00:42:48;;;;;;;7.70;7.20;;;7.70;99.90;;;;;;4881610;29;20221;-78
2024/02/26 00:45:16;;;;;;;7.70;7.20;;;7.70;99.90;;;;;;4880049;29;20621;-79
2024/02/26 00:47:44;;;;;;;7.93;7.40;;;7.70;99.90;;;;;;4881472;29;20202;-78
2024/02/26 00:50:11;;;;;;;7.50;7.10;;;7.60;99.90;;;;;;4879952;29;20269;-79
2024/02/26 00:52:38;;;;;;;7.97;7.50;;;7.60;99.90;;;;;;4880387;29;20229;-78
2024/02/26 00:55:08;;;;;;;7.87;7.40;;;7.60;99.90;;;;;;4881320;29;20208;-79
2024/02/26 00:57:35;;;;;;;7.73;7.23;;;7.60;99.90;;;;;;4880051;29;20229;-78
2024/02/26 01:00:02;;;;;;;7.60;7.20;;;7.60;99.90;;;;;;4881067;29;20225;-78
2024/02/26 01:02:28;;;;;;;7.63;7.13;;;7.50;99.90;;;;;;4881597;29;20232;-78
2024/02/26 01:04:55;;;;;;;7.73;7.13;;;7.50;99.90;;;;;;4881239;29;20209;-78
2024/02/26 01:07:22;;;;;;;7.50;7.10;;;7.50;99.90;;;;;;4881082;29;20327;-78
2024/02/26 01:09:49;;;;;;;7.67;7.27;;;7.50;99.90;;;;;;4880960;29;20225;-78
2024/02/26 01:12:17;;;;;;;7.90;7.40;;;7.50;99.90;;;;;;4880808;29;20277;-79
2024/02/26 01:14:43;;;;;;;7.80;7.30;;;7.50;99.90;;;;;;4881079;29;20201;-79
2024/02/26 01:17:10;;;;;;;7.63;7.23;;;7.50;99.90;;;;;;4880923;29;20300;-78
2024/02/26 01:19:37;;;;;;;7.70;7.20;;;7.40;99.90;;;;;;4880777;29;20567;-78
2024/02/26 01:22:04;;;;;;;7.93;7.43;;;7.40;99.90;;;;;;4880981;29;20253;-78
2024/02/26 01:24:31;;;;;;;7.77;7.27;;;7.40;99.90;;;;;;4881096;29;20220;-79
2024/02/26 01:26:58;;;;;;;7.80;7.30;;;7.50;99.90;;;;;;4879735;29;20213;-78
2024/02/26 01:29:26;;;;;;;7.93;7.40;;;7.50;99.90;;;;;;4880743;29;20677;-78
2024/02/26 01:31:52;;;;;;;7.73;7.23;;;7.50;99.90;;;;;;4878972;29;20281;-78
2024/02/26 01:34:19;;;;;;;7.80;7.30;;;7.50;99.90;;;;;;4880728;29;20257;-79
2024/02/26 01:36:46;;;;;;;7.70;7.27;;;7.60;99.90;;;;;;4880424;29;20261;-79
2024/02/26 01:39:13;;;;;;;8.13;7.63;;;7.60;99.90;;;;;;4880523;29;20280;-78
2024/02/26 01:41:41;;;;;;;8.20;7.50;;;7.60;99.90;;;;;;4879542;29;20205;-78
2024/02/26 01:44:08;;;;;;;8.00;7.50;;;7.70;99.90;;;;;;4880413;29;20673;-79
2024/02/26 01:46:37;;;;;;;8.10;7.60;;;7.70;99.90;;;;;;4879128;29;20201;-79
2024/02/26 01:49:04;;;;;;;7.50;7.10;;;7.70;99.90;;;;;;4878845;29;20209;-78
2024/02/26 01:51:33;;;;;;;8.00;7.50;;;7.70;99.90;;;;;;4872949;29;20234;-78
2024/02/26 01:54:00;;;;;;;8.00;7.50;;;7.80;99.90;;;;;;4879030;29;20265;-78
2024/02/26 01:56:30;;;;;;;7.80;7.40;;;7.70;99.90;;;;;;4880166;29;20221;-78
2024/02/26 01:58:57;;;;;;;8.00;7.50;;;7.70;99.90;;;;;;4878612;29;20209;-78
2024/02/26 02:01:28;;;;;;;8.10;7.60;;;7.70;99.90;;;;;;4879187;29;20288;-78
2024/02/26 02:03:58;;;;;;;8.50;8.00;;;7.70;99.90;;;;;;4879279;29;20575;-78
2024/02/26 02:06:26;;;;;;;7.93;7.43;;;7.70;99.90;;;;;;4879188;29;20265;-79
2024/02/26 02:08:53;;;;;;;7.87;7.37;;;7.60;99.90;;;;;;4880137;29;20209;-78
2024/02/26 02:11:20;;;;;;;8.43;7.90;;;7.50;99.90;;;;;;4878354;29;20213;-78
2024/02/26 02:13:47;;;;;;;8.40;7.90;;;7.50;99.90;;;;;;4879795;29;20228;-78
2024/02/26 02:16:14;;;;;;;8.47;7.90;;;7.50;99.90;;;;;;4878572;29;20575;-79
2024/02/26 02:18:41;;;;;;;8.13;7.63;;;7.60;99.90;;;;;;4878530;29;20208;-78
2024/02/26 02:21:09;;;;;;;8.33;7.83;;;7.50;99.90;;;;;;4878358;29;20197;-78
2024/02/26 02:23:36;;;;;;;8.00;7.50;;;7.60;99.90;;;;;;4872414;29;20410;-78
2024/02/26 02:26:03;;;;;;;8.30;7.80;;;7.60;99.90;;;;;;4878271;29;20624;-79
2024/02/26 02:28:30;;;;;;;8.50;7.90;;;7.60;99.90;;;;;;4879073;29;20265;-78
2024/02/26 02:30:57;;;;;;;8.23;7.73;;;7.50;99.90;;;;;;4878328;29;20209;-78
2024/02/26 02:33:25;;;;;;;8.20;7.70;;;7.50;99.90;;;;;;4879331;29;20244;-79
2024/02/26 02:35:54;;;;;;;8.60;8.10;;;7.50;99.90;;;;;;4878338;29;20253;-78
2024/02/26 02:38:23;;;;;;;8.33;7.83;;;7.50;99.90;;;;;;4879153;29;20221;-78
2024/02/26 02:40:50;;;;;;;8.77;8.17;;;7.50;99.90;;;;;;4878009;29;20288;-78
2024/02/26 02:43:17;;;;;;;8.33;7.83;;;7.60;99.90;;;;;;4879356;29;20320;-78
2024/02/26 02:45:44;;;;;;;8.53;7.93;;;7.50;99.90;;;;;;4878239;29;20209;-78
2024/02/26 02:48:11;;;;;;;8.50;8.00;;;7.50;99.90;;;;;;4878170;29;20257;-77
2024/02/26 02:50:38;;;;;;;8.40;7.90;;;7.50;99.90;;;;;;4878304;29;20206;-78
2024/02/26 02:53:05;;;;;;;8.53;8.03;;;7.50;99.90;;;;;;4878103;29;20257;-78
2024/02/26 02:55:33;;;;;;;8.40;7.90;;;7.50;99.90;;;;;;4877786;29;20673;-78
2024/02/26 02:58:00;;;;;;;8.40;7.90;;;7.50;99.90;;;;;;4879260;29;20256;-78
2024/02/26 03:00:27;;;;;;;8.40;7.90;;;7.40;99.90;;;;;;4877703;29;20209;-79
2024/02/26 03:02:54;;;;;;;8.17;7.67;;;7.40;99.90;;;;;;4879151;29;20651;-78
2024/02/26 03:05:21;;;;;;;8.53;7.93;;;7.40;99.90;;;;;;4877664;29;20209;-78
2024/02/26 03:07:47;;;;;;;8.00;7.50;;;7.40;99.90;;;;;;4877636;29;20256;-78
2024/02/26 03:10:15;;;;;;;8.10;7.60;;;7.40;99.90;;;;;;4877636;29;20209;-78
2024/02/26 03:12:43;;;;;;;8.67;8.07;;;7.40;99.90;;;;;;4878245;29;20225;-78
2024/02/26 03:15:11;;;;;;;8.80;8.30;;;7.40;99.90;;;;;;4877815;29;20209;-79
2024/02/26 03:17:38;;;;;;;8.27;7.77;;;7.40;99.90;;;;;;4878996;29;20221;-78
2024/02/26 03:20:08;;;;;;;8.40;7.90;;;7.40;99.90;;;;;;4878670;29;20201;-79
2024/02/26 03:22:35;;;;;;;8.40;7.90;;;7.40;99.90;;;;;;4877403;29;20257;-78
2024/02/26 03:25:02;;;;;;;8.40;7.90;;;7.40;99.90;;;;;;4878755;29;20685;-78
2024/02/26 03:27:28;;;;;;;8.37;7.87;;;7.40;99.90;;;;;;4879068;29;20197;-78
2024/02/26 03:29:57;;;;;;;8.20;7.70;;;7.40;99.90;;;;;;4878742;29;20567;-78
2024/02/26 03:32:24;;;;;;;8.40;7.90;;;7.30;99.90;;;;;;4877163;29;20293;-78
2024/02/26 03:34:54;;;;;;;8.43;7.93;;;7.30;99.90;;;;;;4877323;29;20236;-78
2024/02/26 03:37:20;;;;;;;8.33;7.83;;;7.20;99.90;;;;;;4878998;29;20245;-78
2024/02/26 03:39:48;;;;;;;8.40;7.90;;;7.20;99.90;;;;;;4877545;29;20211;-78
2024/02/26 03:42:16;;;;;;;8.60;8.10;;;7.20;99.90;;;;;;4877073;29;20652;-78
2024/02/26 03:44:43;;;;;;;8.70;8.20;;;7.20;99.90;;;;;;4878442;29;20205;-78
2024/02/26 03:47:11;;;;;;;8.50;8.00;;;7.20;99.90;;;;;;4877361;29;20205;-78
2024/02/26 03:49:38;;;;;;;8.83;8.30;;;7.20;99.90;;;;;;4879312;29;20209;-77
2024/02/26 03:52:05;;;;;;;8.57;8.07;;;7.30;99.90;;;;;;4871220;29;20230;-77
2024/02/26 03:54:32;;;;;;;8.50;8.00;;;7.30;99.90;;;;;;4869427;29;20681;-78
2024/02/26 03:56:58;;;;;;;8.60;8.10;;;7.20;99.90;;;;;;4872034;29;20221;-79
2024/02/26 03:59:26;;;;;;;8.40;7.90;;;7.30;99.90;;;;;;4875901;29;20212;-79
2024/02/26 04:01:53;;;;;;;8.57;8.07;;;7.20;99.90;;;;;;4871708;29;20654;-79
2024/02/26 04:04:21;;;;;;;8.53;8.03;;;7.20;99.90;;;;;;4869891;29;20213;-79
2024/02/26 04:06:48;;;;;;;8.80;8.20;;;7.20;99.90;;;;;;4873727;29;20640;-79
2024/02/26 04:09:15;;;;;;;8.50;7.90;;;7.20;99.90;;;;;;4869433;29;20674;-79
2024/02/26 04:11:43;;;;;;;8.40;7.90;;;7.20;99.90;;;;;;4873517;29;20756;-79
2024/02/26 04:14:11;;;;;;;8.20;7.70;;;7.20;99.90;;;;;;4873641;29;20229;-79
2024/02/26 04:16:38;;;;;;;8.47;7.97;;;7.20;99.90;;;;;;4876739;29;20244;-80
2024/02/26 04:19:06;;;;;;;8.50;7.90;;;7.20;99.90;;;;;;4878069;29;20201;-79
2024/02/26 04:21:34;;;;;;;8.50;7.90;;;7.20;99.90;;;;;;4876625;29;20205;-79
2024/02/26 04:24:01;;;;;;;8.60;8.03;;;7.20;99.90;;;;;;4877921;29;20202;-80
2024/02/26 04:26:28;;;;;;;8.40;7.90;;;7.20;99.90;;;;;;4880015;29;20293;-80
2024/02/26 04:28:55;;;;;;;8.43;7.93;;;7.10;99.90;;;;;;4880278;29;20212;-79
2024/02/26 04:31:22;;;;;;;8.03;7.53;;;7.10;99.90;;;;;;4881230;29;20253;-79
2024/02/26 04:33:49;;;;;;;8.80;8.10;;;7.10;99.90;;;;;;4881390;29;20221;-80
2024/02/26 04:36:16;;;;;;;8.20;7.70;;;7.10;99.90;;;;;;4881736;29;20495;-80
2024/02/26 04:38:44;;;;;;;8.53;7.83;;;7.10;99.90;;;;;;4879983;29;20320;-80
2024/02/26 04:41:11;;;;;;;8.10;7.60;;;7.20;99.90;;;;;;4880910;29;20765;-80
2024/02/26 04:43:41;;;;;;;8.50;8.00;;;7.20;99.90;;;;;;4882073;29;20229;-80
2024/02/26 04:46:09;;;;;;;8.50;8.00;;;7.20;99.90;;;;;;4883269;29;20204;-81
2024/02/26 04:48:35;;;;;;;7.80;7.30;;;7.20;99.90;;;;;;4881478;29;20300;-78
2024/02/26 04:51:03;;;;;;;8.00;7.50;;;7.20;99.90;;;;;;4878517;29;20694;-78
2024/02/26 04:53:29;;;;;;;8.33;7.73;;;7.10;99.90;;;;;;4881793;29;20583;-78
2024/02/26 04:55:58;;;;;;;8.87;8.17;;;7.10;99.90;;;;;;4882029;29;20248;-77
2024/02/26 04:58:25;;;;;;;9.20;8.40;;;7.10;99.90;;;;;;4883489;29;20308;-77
2024/02/26 05:00:51;;;;;;;8.90;8.30;;;7.10;99.90;;;;;;4883109;29;20204;-77
2024/02/26 05:03:18;;;;;;;8.40;7.90;;;7.10;99.90;;;;;;4882629;29;20249;-78
2024/02/26 05:05:45;;;;;;;8.37;7.87;;;7.10;99.90;;;;;;4883474;29;20205;-78
2024/02/26 05:08:12;;;;;;;8.70;8.13;;;7.10;99.90;;;;;;4883363;29;20212;-78
2024/02/26 05:10:40;;;;;;;8.53;8.00;;;7.10;99.90;;;;;;4883635;29;20213;-78
2024/02/26 05:13:09;;;;;;;8.50;7.90;;;7.10;99.90;;;;;;4882133;29;20231;-78
2024/02/26 05:15:36;;;;;;;8.43;7.90;;;7.10;99.90;;;;;;4883353;29;20205;-78
2024/02/26 05:18:03;;;;;;;7.93;7.53;;;7.10;99.90;;;;;;4882036;29;20228;-77
2024/02/26 05:20:31;;;;;;;8.70;8.10;;;7.00;99.90;;;;;;4883234;29;20684;-78
2024/02/26 05:22:58;;;;;;;8.50;8.00;;;7.10;99.90;;;;;;4882069;29;20640;-77
2024/02/26 05:25:25;;;;;;;8.70;8.20;;;7.10;99.90;;;;;;4883386;29;20273;-78
2024/02/26 05:27:52;;;;;;;8.70;8.20;;;7.10;99.90;;;;;;4876871;29;20208;-79
2024/02/26 05:30:20;;;;;;;9.00;8.50;;;7.10;99.90;;;;;;4881618;29;20205;-78
2024/02/26 05:32:47;;;;;;;8.40;7.90;;;7.10;99.90;;;;;;4883143;29;20296;-78
2024/02/26 05:35:14;;;;;;;8.53;8.03;;;7.10;99.90;;;;;;4882519;29;20202;-78
2024/02/26 05:37:41;;;;;;;8.40;7.90;;;7.00;99.90;;;;;;4883214;29;20225;-77
2024/02/26 05:40:09;;;;;;;8.93;8.40;;;7.00;99.90;;;;;;4883541;29;20201;-77
2024/02/26 05:42:35;;;;;;;8.40;7.90;;;7.00;99.90;;;;;;4879735;29;20229;-78
2024/02/26 05:45:05;;;;;;;9.17;8.40;;;6.90;99.90;;;;;;4881288;29;20216;-78
2024/02/26 05:47:34;;;;;;;8.87;8.27;;;6.90;99.90;;;;;;4882548;29;20203;-78
2024/02/26 05:50:01;;;;;;;9.53;8.93;;;6.80;99.90;;;;;;4884634;29;20192;-78
2024/02/26 05:52:29;;;;;;;9.40;8.80;;;6.80;99.90;;;;;;4884159;29;20624;-77
2024/02/26 05:54:56;;;;;;;9.37;8.77;;;6.80;99.90;;;;;;4884787;29;20209;-77
2024/02/26 05:57:22;;;;;;;9.10;8.50;;;6.70;99.90;;;;;;4884109;29;20232;-77
2024/02/26 05:59:49;;;;;;;9.00;8.40;;;6.60;99.90;;;;;;4883198;29;20227;-78
2024/02/26 06:02:16;;;;;;;9.60;9.00;;;6.60;99.90;;;;;;4881802;29;20273;-77
2024/02/26 06:04:44;;;;;;;9.03;8.27;;;6.50;99.90;;;;;;4882342;29;20205;-77
2024/02/26 06:07:11;;;;;;;9.80;9.00;;;6.50;99.90;;;;;;4881193;29;20227;-78
2024/02/26 06:09:37;;;;;;;9.23;8.63;;;6.50;99.90;;;;;;4882161;29;20202;-77
2024/02/26 06:12:05;;;;;;;9.00;8.40;;;6.50;99.90;;;;;;4882413;29;20293;-78
2024/02/26 06:14:31;;;;;;;9.30;8.70;;;6.50;99.90;;;;;;4882359;29;20209;-78
2024/02/26 06:16:58;;;;;;;9.40;8.80;;;6.50;99.90;;;;;;4882187;29;20212;-77
2024/02/26 06:19:25;;;;;;;10.27;9.47;;;6.50;99.90;;;;;;4880909;29;20252;-78
2024/02/26 06:21:53;;;;;;;10.10;9.10;;;6.40;99.90;;;;;;4881391;29;20285;-78
2024/02/26 06:24:20;;;;;;;9.40;8.80;;;6.50;99.90;;;;;;4880117;29;20212;-78
2024/02/26 06:26:47;;;;;;;10.33;9.63;;;6.40;99.90;;;;;;4881775;29;20240;-78
2024/02/26 06:29:14;;;;;;;10.10;9.40;;;6.40;99.90;;;;;;4877834;29;20205;-78
2024/02/26 06:31:41;;;;;;;10.27;9.50;;;6.40;99.90;;;;;;4881304;29;20625;-78
2024/02/26 06:34:08;;;;;;;9.90;9.20;;;6.40;99.90;;;;;;4880883;29;20544;-78
2024/02/26 06:36:34;;;;;;;9.80;9.20;;;6.40;99.90;;;;;;4881605;29;20206;-77
2024/02/26 06:39:05;;;;;;;10.00;9.20;;;6.40;99.90;;;;;;4879704;29;20293;-78
2024/02/26 06:41:32;;;;;;;9.93;9.20;;;6.30;99.90;;;;;;4881851;29;20210;-79
2024/02/26 06:43:58;;;;;;;9.50;8.80;;;6.30;99.90;;;;;;4881192;29;20201;-78
2024/02/26 06:46:25;;;;;;;10.37;9.63;;;6.40;99.90;;;;;;4880019;29;20210;-77
2024/02/26 06:48:53;;;;;;;10.40;9.70;;;6.50;99.90;;;;;;4879368;29;20201;-78
2024/02/26 06:51:20;;;;;;;10.30;9.70;;;6.50;99.90;;;;;;4881315;29;20205;-77
2024/02/26 06:53:46;;;;;;;9.60;9.00;;;6.60;99.90;;;;;;4879531;29;20228;-78
2024/02/26 06:56:15;;;;;;;9.80;9.20;;;6.70;99.90;;;;;;4881672;29;20230;-77
2024/02/26 06:58:41;;;;;;;10.30;9.60;;;6.70;99.90;;;;;;4879617;29;20269;-78
2024/02/26 07:01:09;;;;;;;10.27;9.67;;;6.80;99.90;;;;;;4881192;29;20201;-78
2024/02/26 07:03:35;;;;;;;10.57;9.87;;;6.90;99.90;;;;;;4881162;29;20225;-78
2024/02/26 07:06:03;;;;;;;10.30;9.60;;;7.00;99.90;;;;;;4878631;29;20219;-78
2024/02/26 07:08:30;;;;;;;10.10;9.50;;;7.10;99.90;;;;;;4876905;29;20226;-78
2024/02/26 07:10:57;;;;;;;10.13;9.53;;;7.10;99.90;;;;;;4880776;29;20193;-79
2024/02/26 07:13:25;;;;;;;10.87;10.10;;;7.20;99.90;;;;;;4880559;29;20224;-78
2024/02/26 07:15:52;;;;;;;10.07;9.47;;;7.20;99.90;;;;;;4879714;29;20205;-77
2024/02/26 07:18:21;;;;;;;10.47;9.67;;;7.20;99.90;;;;;;4879451;29;20217;-84
2024/02/26 07:20:47;;;;;;;9.67;9.07;;;7.30;99.90;;;;;;4878458;29;20204;-78
2024/02/26 07:23:14;;;;;;;10.17;9.50;;;7.30;99.90;;;;;;4878546;29;20244;-79
2024/02/26 07:25:42;;;;;;;10.50;9.70;;;7.30;99.90;;;;;;4877902;29;20209;-78
2024/02/26 07:28:08;;;;;;;10.50;9.80;;;7.40;99.90;;;;;;4878913;29;20205;-78
2024/02/26 07:30:37;;;;;;;10.50;9.80;;;7.40;99.90;;;;;;4876105;29;20266;-78
2024/02/26 07:33:04;;;;;;;10.27;9.57;;;7.50;99.90;;;;;;4878945;29;20236;-78
2024/02/26 07:35:32;;;;;;;10.23;9.63;;;7.50;99.90;;;;;;4871830;29;20232;-78
2024/02/26 07:37:59;;;;;;;10.80;10.00;;;7.50;99.90;;;;;;4879235;29;20225;-78
2024/02/26 07:40:26;;;;;;;10.47;9.80;;;7.60;99.90;;;;;;4878985;29;20205;-78
2024/02/26 07:42:53;;;;;;;10.10;9.40;;;7.60;99.90;;;;;;4878545;29;20700;-78
2024/02/26 07:45:20;;;;;;;9.93;9.23;;;7.70;99.90;;;;;;4877377;29;20204;-78
2024/02/26 07:47:49;;;;;;;9.60;9.00;;;7.80;99.90;;;;;;4878096;29;20209;-78
2024/02/26 07:50:16;;;;;;;9.50;8.80;;;7.80;99.90;;;;;;4877663;29;20201;-78
2024/02/26 07:52:42;;;;;;;10.83;10.10;;;7.90;99.90;;;;;;4877031;29;20229;-78
2024/02/26 07:55:09;;;;;;;10.00;9.30;;;7.90;99.90;;;;;;4877974;29;20213;-78
2024/02/26 07:57:36;;;;;;;9.70;9.10;;;7.90;99.90;;;;;;4878838;29;20197;-78
2024/02/26 08:00:03;;;;;;;10.17;9.47;;;7.90;99.90;;;;;;4880460;29;20221;-79
2024/02/26 08:02:31;;;;;;;9.70;9.10;;;8.00;99.90;;;;;;4882419;29;20217;-78
2024/02/26 08:04:59;;;;;;;9.70;9.10;;;8.00;99.90;;;;;;4882148;29;20206;-78
2024/02/26 08:07:26;;;;;;;9.80;9.10;;;8.10;99.90;;;;;;4882729;29;20576;-78
2024/02/26 08:09:53;;;;;;;9.13;8.53;;;8.10;99.90;;;;;;4881092;29;20205;-78
2024/02/26 08:12:20;;;;;;;9.27;8.67;;;8.20;99.90;;;;;;4881092;29;20237;-78
2024/02/26 08:14:47;;;;;;;9.43;8.73;;;8.30;99.90;;;;;;4880481;29;20243;-78
2024/02/26 08:17:13;;;;;;;9.30;8.63;;;8.40;99.90;;;;;;4881255;29;20240;-78
2024/02/26 08:19:40;;;;;;;10.10;9.40;;;8.40;99.90;;;;;;4882203;29;20221;-78
2024/02/26 08:22:10;;;;;;;10.13;9.50;;;8.40;99.90;;;;;;4880571;29;20225;-78
2024/02/26 08:24:36;;;;;;;10.10;9.40;;;8.40;99.90;;;;;;4877300;29;20878;-78
2024/02/26 08:27:04;;;;;;;10.17;9.37;;;8.50;99.90;;;;;;4880829;29;20233;-78
2024/02/26 08:29:30;;;;;;;10.23;9.40;;;8.50;99.90;;;;;;4880167;29;20205;-78
2024/02/26 08:31:57;;;;;;;9.77;9.10;;;8.50;99.90;;;;;;4881692;29;20605;-78
2024/02/26 08:34:24;;;;;;;10.30;9.60;;;8.60;99.90;;;;;;4880584;29;20209;-78
2024/02/26 08:36:51;;;;;;;10.30;9.40;;;8.50;99.90;;;;;;4880458;29;20233;-78
2024/02/26 08:39:20;;;;;;;10.30;9.50;;;8.50;99.90;;;;;;4881752;29;20704;-78
2024/02/26 08:41:47;;;;;;;10.43;9.63;;;8.40;99.90;;;;;;4881812;29;20315;-78
2024/02/26 08:44:14;;;;;;;10.80;10.00;;;8.40;99.90;;;;;;4881825;29;20575;-78
2024/02/26 08:46:40;;;;;;;10.70;9.90;;;8.40;99.90;;;;;;4881770;29;20699;-78
2024/02/26 08:49:07;;;;;;;10.50;9.70;;;8.50;99.90;;;;;;4881018;29;20740;-79
2024/02/26 08:51:34;;;;;;;9.77;9.17;;;8.50;99.90;;;;;;4881850;29;20270;-78
2024/02/26 08:54:01;;;;;;;10.47;9.60;;;8.60;99.90;;;;;;4880615;29;20233;-78
2024/02/26 08:56:29;;;;;;;10.50;9.80;;;8.60;99.90;;;;;;4880534;29;20244;-78
2024/02/26 08:58:57;;;;;;;10.43;9.73;;;8.70;99.90;;;;;;4879685;29;20218;-78
2024/02/26 09:01:24;;;;;;;10.03;9.33;;;8.70;99.90;;;;;;4889968;29;20216;-78
2024/02/26 09:03:51;;;;;;;10.10;9.40;;;8.70;99.90;;;;;;4881454;29;20205;-78
2024/02/26 09:06:17;;;;;;;9.83;9.10;;;8.80;99.90;;;;;;4881113;29;20197;-78
2024/02/26 09:08:44;;;;;;;9.83;9.13;;;8.90;99.90;;;;;;4880926;29;20198;-78
2024/02/26 09:11:11;;;;;;;10.40;9.60;;;8.90;99.90;;;;;;4879417;29;20229;-79
2024/02/26 09:13:39;;;;;;;10.27;9.47;;;9.00;99.90;;;;;;4878445;29;20221;-78
2024/02/26 09:16:07;;;;;;;10.20;9.47;;;9.00;99.90;;;;;;4880261;29;20205;-78
2024/02/26 09:18:33;;;;;;;10.20;9.30;;;9.10;99.90;;;;;;4881843;29;20280;-77
2024/02/26 09:21:00;;;;;;;10.93;10.07;;;9.10;99.90;;;;;;4881782;29;20205;-78
2024/02/26 09:23:27;;;;;;;10.87;10.07;;;9.10;99.90;;;;;;4877758;29;20709;-79
2024/02/26 09:25:54;;;;;;;11.13;10.33;;;9.10;99.90;;;;;;4881216;29;20234;-78
2024/02/26 09:28:20;;;;;;;11.27;10.17;;;9.10;99.90;;;;;;4880261;29;20269;-78
2024/02/26 09:30:50;;;;;;;11.00;10.10;;;9.10;99.90;;;;;;4879450;29;20941;-78
2024/02/26 09:33:17;;;;;;;10.77;10.07;;;9.10;99.90;;;;;;4880910;29;21025;-78
2024/02/26 09:35:43;;;;;;;11.40;10.50;;;9.00;99.90;;;;;;4880764;29;20205;-78
2024/02/26 09:38:10;;;;;;;10.90;10.10;;;9.10;99.90;;;;;;4879896;29;20210;-78
2024/02/26 09:40:38;;;;;;;10.23;9.53;;;9.20;99.90;;;;;;4879507;29;20225;-78
2024/02/26 09:43:07;;;;;;;10.43;9.63;;;9.30;99.90;;;;;;4880124;29;20784;-78
2024/02/26 09:45:35;;;;;;;10.90;9.90;;;9.30;99.90;;;;;;4880695;29;20274;-78
2024/02/26 09:48:05;;;;;;;10.63;9.87;;;9.40;99.90;;;;;;4880832;29;20231;-79
2024/02/26 09:50:32;;;;;;;9.17;8.47;;;9.60;99.90;;;;;;4875849;29;20253;-78
2024/02/26 09:53:02;;;;;;;11.30;10.40;;;9.60;99.90;;;;;;4886034;29;20705;-79
2024/02/26 09:55:29;;;;;;;10.60;9.80;;;9.80;99.90;;;;;;4879388;29;20211;-78
2024/02/26 09:57:58;;;;;;;5.33;4.00;;;9.90;99.90;;;;;;4880042;29;20230;-78
2024/02/26 10:00:32;;;;;;;6.10;5.60;;;10.10;99.90;;;;;;4872895;29;20233;-78
2024/02/26 10:03:03;;;;;;;5.40;4.90;;;10.20;99.90;;;;;;4880237;29;20219;-80
2024/02/26 10:05:33;;;;;;;6.50;4.47;;;10.30;99.90;;;;;;4869739;29;20695;-80
2024/02/26 10:08:01;;;;;;;4.70;3.60;;;10.50;99.90;;;;;;4879216;29;20196;-79
2024/02/26 10:10:29;;;;;;;9.60;8.90;;;10.70;99.90;;;;;;4879308;29;20562;-79
2024/02/26 10:12:56;;;;;;;9.90;9.20;;;10.80;99.90;;;;;;4873890;29;20753;-78
2024/02/26 10:15:23;;;;;;;10.80;10.10;;;10.80;99.90;;;;;;4877482;29;20212;-78
2024/02/26 10:17:50;;;;;;;9.10;8.50;;;10.90;99.90;;;;;;4878494;29;20204;-79
2024/02/26 10:20:18;;;;;;;7.23;6.70;;;11.00;99.90;;;;;;4875780;29;20767;-79
2024/02/26 10:22:46;;;;;;;9.60;8.90;;;11.10;99.90;;;;;;4877188;29;20335;-79
2024/02/26 10:25:13;;;;;;;8.30;7.67;;;11.10;99.90;;;;;;4878162;29;20201;-80
2024/02/26 10:27:42;;;;;;;9.50;8.90;;;11.30;99.90;;;;;;4879474;29;20205;-78
2024/02/26 10:30:18;;;;;;;9.40;8.63;;;11.40;99.90;;;;;;4880133;29;20197;-78
2024/02/26 10:32:46;;;;;;;9.20;8.60;;;11.50;99.90;;;;;;4879571;29;20307;-79
2024/02/26 10:35:13;;;;;;;9.73;9.03;;;11.50;99.90;;;;;;4876041;29;20296;-79
2024/02/26 10:37:41;;;;;;;9.80;9.10;;;11.40;99.90;;;;;;4877999;29;20301;-82
2024/02/26 10:40:11;;;;;;;10.00;9.30;;;11.30;99.90;;;;;;4879150;29;20254;-81
2024/02/26 10:42:38;;;;;;;9.80;9.10;;;11.30;99.90;;;;;;4878737;29;20273;-79
2024/02/26 10:45:06;;;;;;;10.20;9.50;;;11.30;99.90;;;;;;4877779;29;20209;-79
2024/02/26 10:47:33;;;;;;;10.73;9.93;;;11.30;99.90;;;;;;4873086;29;20236;-80
2024/02/26 10:50:02;;;;;;;11.27;10.37;;;11.30;99.90;;;;;;4886547;29;20207;-78
2024/02/26 10:52:32;;;;;;;10.90;10.00;;;11.30;99.90;;;;;;4876881;29;20244;-79
2024/02/26 10:55:01;;;;;;;10.73;10.03;;;11.40;99.90;;;;;;4874226;29;20254;-79
2024/02/26 10:57:33;;;;;;;10.67;9.87;;;11.40;99.90;;;;;;4875337;29;20216;-79
2024/02/26 11:00:01;;;;;;;10.67;9.77;;;11.40;99.90;;;;;;4878856;29;20244;-79
2024/02/26 11:02:28;;;;;;;9.60;9.00;;;11.50;99.90;;;;;;4876656;29;20257;-79
2024/02/26 11:04:56;;;;;;;10.97;10.17;;;11.60;99.90;;;;;;4873426;29;20216;-79
2024/02/26 11:07:23;;;;;;;10.73;9.73;;;11.70;99.90;;;;;;4876787;29;20224;-79
2024/02/26 11:09:52;;;;;;;10.40;9.60;;;11.70;99.90;;;;;;4876773;29;20277;-79
2024/02/26 11:12:19;;;;;;;10.70;10.00;;;11.60;99.90;;;;;;4877344;29;20673;-79
2024/02/26 11:14:50;;;;;;;10.60;9.70;;;11.60;99.90;;;;;;4871045;29;20218;-79
2024/02/26 11:17:21;;;;;;;10.80;9.87;;;11.50;99.90;;;;;;4879957;29;20205;-79
2024/02/26 11:19:49;;;;;;;10.50;9.80;;;11.50;99.90;;;;;;4877801;29;20708;-79
2024/02/26 11:22:16;;;;;;;10.40;9.70;;;11.60;99.90;;;;;;4877759;29;20246;-79
2024/02/26 11:24:42;;;;;;;10.20;9.50;;;11.70;99.90;;;;;;4876776;29;20209;-79
2024/02/26 11:27:12;;;;;;;10.40;9.70;;;11.90;99.90;;;;;;4877117;29;20210;-79
2024/02/26 11:29:42;;;;;;;10.27;9.57;;;12.00;99.90;;;;;;4876507;29;20201;-79
2024/02/26 11:32:10;;;;;;;10.00;9.20;;;12.10;99.90;;;;;;4876661;29;20225;-79
2024/02/26 11:34:38;;;;;;;10.07;9.37;;;12.20;99.90;;;;;;4877263;29;20669;-78
2024/02/26 11:37:12;;;;;;;6.53;5.87;;;12.30;99.90;;;;;;4877480;29;20229;-79
2024/02/26 11:39:40;;;;;;;3.80;3.40;;;12.30;99.90;;;;;;4877097;29;20225;-79
2024/02/26 11:42:08;;;;;;;8.67;8.07;;;12.40;99.90;;;;;;4876633;29;20270;-79
2024/02/26 11:44:36;;;;;;;10.20;9.40;;;12.30;99.90;;;;;;4875092;29;20201;-79
2024/02/26 11:47:12;;;;;;;9.80;9.20;;;12.40;99.90;;;;;;4871161;29;20199;-79
2024/02/26 11:49:39;;;;;;;10.60;9.90;;;12.40;99.90;;;;;;4877703;29;20201;-79
2024/02/26 11:52:08;;;;;;;9.37;8.47;;;12.60;99.90;;;;;;4877071;29;20229;-79
2024/02/26 11:54:40;;;;;;;9.50;8.80;;;12.70;99.90;;;;;;4877892;29;20209;-79
2024/02/26 11:57:24;;;;;;;9.87;9.07;;;12.80;99.90;;;;;;4876874;29;20291;-79
2024/02/26 11:59:51;;;;;;;10.60;9.80;;;12.90;99.90;;;;;;4876634;29;20321;-79
2024/02/26 12:02:41;;;;;;;9.40;8.80;;;13.00;99.90;;;;;;4878475;29;20216;-79
2024/02/26 12:05:12;;;;;;;8.20;7.60;;;13.10;99.90;;;;;;4876779;29;20259;-79
2024/02/26 12:07:41;;;;;;;9.20;8.43;;;13.20;99.90;;;;;;4877957;29;20239;-79
2024/02/26 12:10:22;;;;;;;9.20;8.50;;;13.20;99.90;;;;;;4876430;29;20195;-79
2024/02/26 12:12:50;;;;;;;8.60;8.10;;;13.20;99.90;;;;;;4876412;29;20226;-79
2024/02/26 12:15:19;;;;;;;9.97;9.37;;;13.30;99.90;;;;;;4876625;29;20208;-79
2024/02/26 12:17:51;;;;;;;3.10;2.80;;;13.20;99.90;;;;;;4877092;29;20250;-79
2024/02/26 12:20:20;;;;;;;3.93;3.53;;;13.20;99.90;;;;;;4877800;29;20223;-79
2024/02/26 12:22:48;;;;;;;5.60;5.20;;;13.30;99.90;;;;;;4876637;29;20232;-79
2024/02/26 12:25:15;;;;;;;3.10;2.80;;;13.30;99.90;;;;;;4868469;29;20652;-80
2024/02/26 12:27:41;;;;;;;8.60;7.77;;;13.30;99.90;;;;;;4889162;29;20215;-79
2024/02/26 12:30:10;;;;;;;9.60;8.90;;;13.20;99.90;;;;;;4876547;29;20197;-79
2024/02/26 12:32:37;;;;;;;8.80;8.20;;;13.10;99.90;;;;;;4876346;29;20315;-79
2024/02/26 12:35:07;;;;;;;9.10;8.50;;;13.20;99.90;;;;;;4876132;29;20263;-79
2024/02/26 12:37:36;;;;;;;8.60;8.00;;;13.30;99.90;;;;;;4878037;29;20715;-79
2024/02/26 12:40:03;;;;;;;9.50;8.77;;;13.40;99.90;;;;;;4890032;29;20638;-79
2024/02/26 12:42:32;;;;;;;9.17;8.37;;;13.40;99.90;;;;;;4873383;29;20638;-79
2024/02/26 12:44:59;;;;;;;9.27;8.57;;;13.50;99.90;;;;;;4877341;29;20575;-79
2024/02/26 12:47:26;;;;;;;9.03;8.50;;;13.60;99.90;;;;;;4880679;29;20204;-79
2024/02/26 12:49:52;;;;;;;4.50;3.10;;;13.70;99.90;;;;;;4873407;29;20198;-80
2024/02/26 12:52:21;;;;;;;3.87;3.17;;;13.60;99.90;;;;;;4879366;29;20228;-80